Terminal Aerodrome Forecast
Issued by NWS

Home | Current Version | Previous Version | Text Only | Print | Product List | Glossary On
Versions: 1 2 3 4 5 6 7 8 9 10 11 12 13 14 15 16 17 18 19 20 21 22 23 24 25 26 27 28 29 30 31 32 33 34
676
FTUS43 KDVN 220657 AAA
TAFCID
TAF AMD
KCID 220657Z 2207/2306 07015G20KT P6SM BKN110
     FM221200 24007KT P6SM BKN150
     FM221900 30009KT P6SM SCT250=

USA.gov is the U.S. government's official web portal to all federal, state and local government web resources and services.